Time;durP1;ratioP1;P1;durP2;ratioP2;P2;SDS_P1;SDS_P2;PMS_P1;PMS_P2;Temp;Humidity;BMP_temperature;BMP_pressure;BME280_temperature;BME280_humidity;BME280_pressure;Samples;Min_cycle;Max_cycle;Signal;HPM_P1;HPM_P2
2021/09/11 00:00:28;;;;;;;6.37;5.03;;;18.60;99.90;;;;;;5059902;28;20835;-61
2021/09/11 00:02:55;;;;;;;6.40;5.70;;;18.70;99.90;;;;;;5060262;28;20458;-61
2021/09/11 00:05:32;;;;;;;6.80;6.10;;;18.60;99.90;;;;;;5059776;28;20553;-61
2021/09/11 00:07:59;;;;;;;5.93;5.33;;;18.70;99.90;;;;;;5060274;28;20922;-59
2021/09/11 00:10:26;;;;;;;6.10;5.50;;;18.70;99.90;;;;;;5059781;28;20498;-60
2021/09/11 00:12:52;;;;;;;6.73;5.73;;;18.60;99.90;;;;;;5060347;28;20584;-60
2021/09/11 00:15:19;;;;;;;6.63;5.93;;;18.60;99.90;;;;;;5059406;28;20502;-60
2021/09/11 00:17:48;;;;;;;6.27;5.77;;;18.50;99.90;;;;;;5059514;28;20501;-60
2021/09/11 00:20:16;;;;;;;6.90;6.20;;;18.50;99.90;;;;;;5059681;28;20490;-60
2021/09/11 00:22:45;;;;;;;7.23;6.20;;;18.40;99.90;;;;;;5059857;28;20524;-60
2021/09/11 00:25:12;;;;;;;6.87;6.17;;;18.40;99.90;;;;;;5057503;28;20525;-60
2021/09/11 00:27:42;;;;;;;7.00;6.30;;;18.40;99.90;;;;;;5055557;28;20466;-60
2021/09/11 00:30:10;;;;;;;6.40;5.80;;;18.40;99.90;;;;;;5059291;28;20493;-61
2021/09/11 00:32:42;;;;;;;6.60;5.83;;;18.50;99.90;;;;;;5058432;28;20493;-60
2021/09/11 00:35:09;;;;;;;6.00;5.50;;;18.50;99.90;;;;;;5051894;28;20552;-61
2021/09/11 00:37:36;;;;;;;6.40;5.90;;;18.50;99.90;;;;;;5049834;28;20537;-60
2021/09/11 00:40:06;;;;;;;6.67;6.07;;;18.50;99.90;;;;;;5050293;28;20505;-61
2021/09/11 00:42:33;;;;;;;6.40;5.80;;;18.40;99.90;;;;;;5053578;28;20465;-60
2021/09/11 00:45:07;;;;;;;6.37;5.70;;;18.40;99.90;;;;;;5055542;28;20463;-61
2021/09/11 00:47:34;;;;;;;7.93;7.23;;;18.50;99.90;;;;;;5056653;28;20502;-61
2021/09/11 00:50:05;;;;;;;6.63;6.10;;;18.40;99.90;;;;;;5071054;28;20560;-61
2021/09/11 00:52:32;;;;;;;6.37;5.87;;;18.50;99.90;;;;;;5064563;28;20462;-60
2021/09/11 00:54:59;;;;;;;7.57;6.87;;;18.40;99.90;;;;;;5058014;28;20896;-60
2021/09/11 00:57:28;;;;;;;8.23;7.47;;;18.40;99.90;;;;;;5056371;28;20523;-61
2021/09/11 00:59:57;;;;;;;7.87;7.10;;;18.40;99.90;;;;;;5056097;28;20543;-61
2021/09/11 01:02:24;;;;;;;7.10;6.50;;;18.40;99.90;;;;;;5050243;28;20462;-57
2021/09/11 01:04:51;;;;;;;8.00;7.20;;;18.40;99.90;;;;;;5059051;28;20551;-61
2021/09/11 01:07:18;;;;;;;7.17;6.50;;;18.40;99.90;;;;;;5058690;28;20935;-60
2021/09/11 01:09:45;;;;;;;8.23;7.50;;;18.40;99.90;;;;;;5058182;28;20455;-60
2021/09/11 01:12:12;;;;;;;8.30;7.57;;;18.40;99.90;;;;;;5057596;28;20501;-60
2021/09/11 01:14:40;;;;;;;7.90;7.20;;;18.40;99.90;;;;;;5058044;28;20587;-59
2021/09/11 01:17:14;;;;;;;7.27;6.10;;;18.40;99.90;;;;;;5060068;28;20949;-60
2021/09/11 01:19:41;;;;;;;7.50;6.80;;;18.30;99.90;;;;;;5060017;28;20839;-61
2021/09/11 01:22:13;;;;;;;9.47;8.27;;;18.40;99.90;;;;;;5061100;28;20489;-60
2021/09/11 01:24:53;;;;;;;9.40;7.73;;;18.40;99.90;;;;;;5058247;28;20490;-60
2021/09/11 01:27:20;;;;;;;9.53;8.60;;;18.40;99.90;;;;;;5058177;28;20466;-60
2021/09/11 01:29:52;;;;;;;11.17;9.97;;;18.40;99.90;;;;;;5057408;28;20832;-60
2021/09/11 01:32:20;;;;;;;9.60;8.60;;;18.40;99.90;;;;;;5056994;28;20462;-60
2021/09/11 01:34:47;;;;;;;10.67;9.80;;;18.40;99.90;;;;;;5057554;28;20536;-59
2021/09/11 01:37:14;;;;;;;10.00;9.13;;;18.40;99.90;;;;;;5064128;28;20487;-60
2021/09/11 01:39:41;;;;;;;8.73;7.73;;;18.40;99.90;;;;;;5062656;28;20497;-60
2021/09/11 01:42:10;;;;;;;9.87;8.97;;;18.40;99.90;;;;;;5047072;28;20467;-60
2021/09/11 01:44:39;;;;;;;13.40;9.83;;;18.40;99.90;;;;;;5047593;28;20517;-60
2021/09/11 01:47:06;;;;;;;11.83;10.63;;;18.40;99.90;;;;;;5063831;28;20458;-59
2021/09/11 01:49:34;;;;;;;19.83;15.13;;;18.40;99.90;;;;;;5060101;28;20469;-60
2021/09/11 01:52:01;;;;;;;13.70;12.50;;;18.40;99.90;;;;;;5076149;28;20546;-60
2021/09/11 01:54:28;;;;;;;14.70;13.33;;;18.40;99.90;;;;;;5058243;28;21007;-59
2021/09/11 01:56:54;;;;;;;16.37;14.37;;;18.40;99.90;;;;;;5056917;28;20501;-59
2021/09/11 01:59:24;;;;;;;17.07;15.53;;;18.40;99.90;;;;;;5059118;28;20498;-59
2021/09/11 02:01:51;;;;;;;20.10;18.30;;;18.40;99.90;;;;;;5056124;28;20475;-59
2021/09/11 02:04:18;;;;;;;21.60;19.77;;;18.40;99.90;;;;;;5056662;28;20436;-60
2021/09/11 02:06:45;;;;;;;21.73;19.83;;;18.40;99.90;;;;;;5047924;28;20502;-59
2021/09/11 02:09:12;;;;;;;26.53;24.10;;;18.40;99.90;;;;;;5057548;28;20553;-55
2021/09/11 02:11:39;;;;;;;24.87;22.67;;;18.40;99.90;;;;;;5050995;28;20817;-59
2021/09/11 02:14:06;;;;;;;22.77;20.83;;;18.40;99.90;;;;;;5056981;28;20514;-59
2021/09/11 02:16:35;;;;;;;23.27;21.23;;;18.40;99.90;;;;;;5056884;28;20466;-60
2021/09/11 02:19:02;;;;;;;24.67;21.10;;;18.40;99.90;;;;;;5055913;28;20494;-59
2021/09/11 02:21:29;;;;;;;25.00;22.80;;;18.40;99.90;;;;;;5056029;28;20459;-60
2021/09/11 02:23:57;;;;;;;25.63;23.33;;;18.40;99.90;;;;;;5048071;28;20479;-59
2021/09/11 02:26:24;;;;;;;26.90;24.43;;;18.40;99.90;;;;;;5056281;28;20465;-59
2021/09/11 02:28:52;;;;;;;27.30;24.80;;;18.50;99.90;;;;;;5056589;28;20494;-60
2021/09/11 02:31:19;;;;;;;26.80;24.27;;;18.40;99.90;;;;;;5057105;28;20466;-60
2021/09/11 02:33:48;;;;;;;27.53;24.90;;;18.40;99.90;;;;;;5053309;28;20947;-60
2021/09/11 02:36:15;;;;;;;28.13;25.30;;;18.40;99.90;;;;;;5053304;28;20517;-60
2021/09/11 02:38:42;;;;;;;26.60;24.10;;;18.40;99.90;;;;;;5055257;28;20490;-60
2021/09/11 02:41:11;;;;;;;28.27;25.47;;;18.40;99.90;;;;;;5053151;28;20600;-60
2021/09/11 02:43:38;;;;;;;30.00;27.00;;;18.40;99.90;;;;;;5051604;28;20458;-60
2021/09/11 02:46:08;;;;;;;31.20;27.90;;;18.40;99.90;;;;;;5042740;28;20929;-60
2021/09/11 02:48:35;;;;;;;31.13;28.20;;;18.40;99.90;;;;;;5044875;28;20553;-55
2021/09/11 02:51:03;;;;;;;33.43;30.20;;;18.40;99.90;;;;;;5052917;28;20498;-60
2021/09/11 02:53:30;;;;;;;32.77;29.53;;;18.40;99.90;;;;;;5045740;28;20530;-59
2021/09/11 02:55:57;;;;;;;35.23;31.73;;;18.40;99.90;;;;;;5048393;28;20462;-60
2021/09/11 02:58:24;;;;;;;34.43;30.83;;;18.30;99.90;;;;;;5047210;28;20509;-59
2021/09/11 03:00:52;;;;;;;34.07;30.47;;;18.30;99.90;;;;;;5050159;28;20885;-58
2021/09/11 03:03:22;;;;;;;35.73;32.03;;;18.30;99.90;;;;;;5040236;28;20524;-56
2021/09/11 03:05:51;;;;;;;34.50;31.00;;;18.30;99.90;;;;;;5037220;28;20530;-59
2021/09/11 03:08:19;;;;;;;34.17;30.93;;;18.30;99.90;;;;;;5037496;28;20482;-59
2021/09/11 03:10:47;;;;;;;31.57;28.57;;;18.40;99.90;;;;;;5052511;28;20457;-59
2021/09/11 03:13:14;;;;;;;34.37;30.73;;;18.40;99.90;;;;;;5044321;28;20455;-59
2021/09/11 03:15:41;;;;;;;33.27;29.97;;;18.40;99.90;;;;;;5055373;28;20493;-59
2021/09/11 03:18:08;;;;;;;33.87;30.53;;;18.30;99.90;;;;;;5056651;28;20458;-59
2021/09/11 03:20:37;;;;;;;31.73;28.83;;;18.30;99.90;;;;;;5055922;28;21099;-59
2021/09/11 03:23:05;;;;;;;32.70;29.63;;;18.20;99.90;;;;;;5057954;28;20477;-59
2021/09/11 03:25:33;;;;;;;31.73;28.73;;;18.20;99.90;;;;;;5055749;28;20517;-59
2021/09/11 03:28:00;;;;;;;31.70;28.70;;;18.20;99.90;;;;;;5042319;28;20442;-59
2021/09/11 03:30:27;;;;;;;30.57;27.30;;;18.30;99.90;;;;;;5054952;28;20502;-59
2021/09/11 03:32:55;;;;;;;33.37;30.07;;;18.20;99.90;;;;;;5045746;28;20502;-57
2021/09/11 03:35:23;;;;;;;31.33;28.43;;;18.20;99.90;;;;;;5053333;28;20954;-60
2021/09/11 03:37:50;;;;;;;30.63;27.67;;;18.20;99.90;;;;;;5047175;28;20893;-58
2021/09/11 03:40:17;;;;;;;29.90;26.93;;;18.20;99.90;;;;;;5052161;28;20946;-58
2021/09/11 03:42:46;;;;;;;30.63;27.43;;;18.20;99.90;;;;;;5054778;28;20520;-59
2021/09/11 03:45:13;;;;;;;33.70;30.30;;;18.20;99.90;;;;;;5056761;28;20490;-59
2021/09/11 03:47:40;;;;;;;30.03;27.00;;;18.20;99.90;;;;;;5056053;28;20498;-58
2021/09/11 03:50:09;;;;;;;29.00;26.30;;;18.20;99.90;;;;;;5052757;28;20496;-57
2021/09/11 03:52:36;;;;;;;30.47;27.27;;;18.20;99.90;;;;;;5051024;28;20513;-58
2021/09/11 03:55:05;;;;;;;28.20;25.37;;;18.20;99.90;;;;;;5035726;28;20499;-55
2021/09/11 03:57:32;;;;;;;30.83;27.93;;;18.20;99.90;;;;;;5054190;28;20757;-59
2021/09/11 04:00:00;;;;;;;30.10;27.00;;;18.20;99.90;;;;;;5055861;28;20500;-59
2021/09/11 04:02:27;;;;;;;29.93;26.73;;;18.30;99.90;;;;;;5055323;28;20472;-57
2021/09/11 04:04:54;;;;;;;28.90;25.90;;;18.20;99.90;;;;;;5055622;28;20497;-59
2021/09/11 04:07:21;;;;;;;32.27;27.80;;;18.30;99.90;;;;;;5055453;28;20876;-58
2021/09/11 04:09:48;;;;;;;31.50;28.27;;;18.20;99.90;;;;;;5048033;28;20499;-57
2021/09/11 04:12:15;;;;;;;30.37;27.17;;;18.20;99.90;;;;;;5053469;28;20866;-57
2021/09/11 04:14:42;;;;;;;30.93;27.77;;;18.20;99.90;;;;;;5056077;28;20493;-58
2021/09/11 04:17:10;;;;;;;29.80;26.70;;;18.30;99.90;;;;;;5055965;28;20904;-56
2021/09/11 04:19:40;;;;;;;33.23;28.27;;;18.20;99.90;;;;;;5056201;28;20493;-58
2021/09/11 04:22:08;;;;;;;32.30;28.40;;;18.20;99.90;;;;;;5061807;28;20927;-58
2021/09/11 04:24:35;;;;;;;31.67;28.27;;;18.30;99.90;;;;;;5079790;28;20815;-58
2021/09/11 04:27:02;;;;;;;31.63;28.40;;;18.20;99.90;;;;;;5061786;28;20497;-58
2021/09/11 04:29:29;;;;;;;34.43;29.37;;;18.20;99.90;;;;;;5059947;28;20494;-59
2021/09/11 04:31:56;;;;;;;31.50;28.50;;;18.30;99.90;;;;;;5058778;28;20466;-59
2021/09/11 04:34:24;;;;;;;34.37;30.57;;;18.30;99.90;;;;;;5066519;28;20611;-59
2021/09/11 04:36:51;;;;;;;35.03;31.20;;;18.30;99.90;;;;;;5059280;28;20497;-59
2021/09/11 04:39:18;;;;;;;33.73;29.87;;;18.20;99.90;;;;;;5056797;28;20518;-59
2021/09/11 04:41:45;;;;;;;32.83;29.17;;;18.10;99.90;;;;;;5049606;28;20455;-57
2021/09/11 04:44:12;;;;;;;33.80;30.20;;;18.00;99.90;;;;;;5057191;28;20823;-59
2021/09/11 04:46:38;;;;;;;29.10;26.10;;;17.90;99.90;;;;;;5074176;28;20536;-58
2021/09/11 04:49:05;;;;;;;27.70;24.90;;;17.90;99.90;;;;;;5062266;28;20485;-59
2021/09/11 04:51:34;;;;;;;28.13;24.20;;;17.80;99.90;;;;;;5059567;28;20489;-59
2021/09/11 04:54:00;;;;;;;25.40;22.70;;;17.70;99.90;;;;;;5058965;28;20944;-60
2021/09/11 04:56:27;;;;;;;25.27;22.70;;;17.70;99.90;;;;;;5058466;28;20497;-58
2021/09/11 04:58:54;;;;;;;24.00;21.60;;;17.60;99.90;;;;;;5058926;28;20458;-58
2021/09/11 05:01:21;;;;;;;23.70;21.40;;;17.50;99.90;;;;;;5059071;28;20501;-59
2021/09/11 05:03:48;;;;;;;23.67;21.30;;;17.60;99.90;;;;;;5058687;28;20468;-59
2021/09/11 05:06:16;;;;;;;22.37;20.23;;;17.50;99.90;;;;;;5058911;28;20470;-58
2021/09/11 05:08:47;;;;;;;20.97;18.87;;;17.50;99.90;;;;;;5058432;28;20463;-59
2021/09/11 05:11:14;;;;;;;20.83;18.77;;;17.50;99.90;;;;;;5058172;28;20555;-59
2021/09/11 05:13:41;;;;;;;18.63;16.83;;;17.50;99.90;;;;;;5056752;28;20471;-56
2021/09/11 05:16:08;;;;;;;17.70;15.90;;;17.50;99.90;;;;;;5055204;28;20493;-59
2021/09/11 05:18:36;;;;;;;20.93;16.47;;;17.50;99.90;;;;;;5047909;28;20574;-58
2021/09/11 05:21:06;;;;;;;16.17;14.73;;;17.50;99.90;;;;;;5055975;28;20553;-60
2021/09/11 05:23:33;;;;;;;17.10;15.40;;;17.40;99.90;;;;;;5057424;28;20924;-59
2021/09/11 05:26:03;;;;;;;16.87;13.93;;;17.40;99.90;;;;;;5058064;28;20839;-59
2021/09/11 05:28:30;;;;;;;14.50;13.00;;;17.40;99.90;;;;;;5050279;28;20573;-59
2021/09/11 05:30:57;;;;;;;14.03;12.50;;;17.30;99.90;;;;;;5044015;28;20503;-58
2021/09/11 05:33:24;;;;;;;14.33;12.80;;;17.30;99.90;;;;;;5053654;28;20925;-59
2021/09/11 05:35:52;;;;;;;13.80;12.40;;;17.30;99.90;;;;;;5056950;28;20490;-58
2021/09/11 05:38:19;;;;;;;14.03;11.60;;;17.20;99.90;;;;;;5055966;28;20505;-58
2021/09/11 05:40:46;;;;;;;14.60;12.13;;;17.20;99.90;;;;;;5058282;28;20572;-57
2021/09/11 05:43:16;;;;;;;13.20;11.90;;;17.10;99.90;;;;;;5055023;28;20505;-57
2021/09/11 05:45:43;;;;;;;12.77;11.50;;;17.20;99.90;;;;;;5057852;28;20905;-56
2021/09/11 05:48:10;;;;;;;12.40;11.30;;;17.20;99.90;;;;;;5057047;28;20814;-52
2021/09/11 05:50:41;;;;;;;13.63;10.83;;;17.20;99.90;;;;;;5058385;28;20501;-55
2021/09/11 05:53:08;;;;;;;12.73;11.53;;;17.20;99.90;;;;;;5057942;28;20484;-57
2021/09/11 05:55:35;;;;;;;18.30;10.97;;;17.20;99.90;;;;;;5058122;28;20936;-51
2021/09/11 05:58:02;;;;;;;10.67;9.57;;;17.30;99.90;;;;;;5058012;28;20485;-56
2021/09/11 06:00:30;;;;;;;10.77;9.67;;;17.20;1.00;;;;;;5057142;28;20504;-56
2021/09/11 06:02:57;;;;;;;12.27;10.17;;;17.20;1.00;;;;;;5057785;28;20560;-57
2021/09/11 06:05:24;;;;;;;12.07;9.27;;;17.20;1.00;;;;;;5057899;28;20832;-57
2021/09/11 06:07:51;;;;;;;9.70;8.73;;;17.30;1.00;;;;;;5037948;28;20952;-53
2021/09/11 06:10:18;;;;;;;9.60;8.60;;;17.30;99.90;;;;;;5056571;28;20503;-56
2021/09/11 06:12:45;;;;;;;10.10;7.53;;;17.30;99.90;;;;;;5057509;28;20550;-54
2021/09/11 06:15:13;;;;;;;7.93;7.20;;;17.30;1.00;;;;;;5057701;28;20486;-57
2021/09/11 06:17:42;;;;;;;8.47;7.67;;;17.30;99.90;;;;;;5057581;28;20718;-55
2021/09/11 06:20:13;;;;;;;9.87;7.20;;;17.30;99.90;;;;;;5056896;28;20768;-55
2021/09/11 06:22:40;;;;;;;7.33;6.67;;;17.30;1.00;;;;;;5056423;28;20466;-53
2021/09/11 06:25:11;;;;;;;7.20;6.47;;;17.30;1.00;;;;;;5055542;28;20564;-55
2021/09/11 06:27:39;;;;;;;7.60;6.90;;;17.40;1.00;;;;;;5056624;28;20462;-53
2021/09/11 06:30:07;;;;;;;8.23;7.30;;;17.60;99.90;;;;;;5057115;28;20816;-56
2021/09/11 06:32:38;;;;;;;7.63;6.27;;;17.70;99.90;;;;;;5056895;28;20473;-57
2021/09/11 06:35:11;;;;;;;7.83;7.03;;;17.80;59.80;;;;;;5039262;28;21025;-59
2021/09/11 06:37:40;;;;;;;9.17;8.27;;;17.90;1.00;;;;;;5051964;28;20466;-57
2021/09/11 06:40:10;;;;;;;10.43;8.10;;;18.00;99.90;;;;;;5055354;28;20437;-58
2021/09/11 06:42:37;;;;;;;7.70;7.00;;;18.00;99.90;;;;;;5038048;28;20473;-59
2021/09/11 06:45:07;;;;;;;8.20;7.50;;;18.10;1.00;;;;;;5052694;28;20863;-53
2021/09/11 06:47:35;;;;;;;8.60;6.37;;;18.10;1.00;;;;;;5057052;28;20787;-53
2021/09/11 06:50:02;;;;;;;6.90;6.03;;;18.00;99.90;;;;;;5056740;28;20922;-53
2021/09/11 06:52:33;;;;;;;6.23;5.63;;;18.00;99.90;;;;;;5057124;28;20825;-49
2021/09/11 06:55:02;;;;;;;6.23;5.43;;;18.10;99.90;;;;;;5055823;28;20478;-53
2021/09/11 06:57:29;;;;;;;6.97;6.37;;;18.00;99.90;;;;;;5055249;28;20484;-52
2021/09/11 06:59:57;;;;;;;6.47;5.87;;;18.20;99.90;;;;;;5055455;28;20548;-53
2021/09/11 07:02:34;;;;;;;7.83;6.03;;;18.20;99.90;;;;;;5052859;28;20788;-51
2021/09/11 07:05:04;;;;;;;8.33;5.93;;;18.30;99.90;;;;;;5055734;28;20432;-54
2021/09/11 07:07:34;;;;;;;6.80;6.10;;;18.40;99.90;;;;;;5056938;28;20463;-52
2021/09/11 07:10:03;;;;;;;7.27;6.20;;;18.40;99.90;;;;;;5056768;28;20475;-55
2021/09/11 07:12:30;;;;;;;11.87;6.60;;;18.30;99.90;;;;;;5056558;28;20465;-53
2021/09/11 07:15:01;;;;;;;6.37;5.77;;;18.30;99.90;;;;;;5056833;28;20493;-57
2021/09/11 07:17:29;;;;;;;8.80;7.10;;;18.40;99.90;;;;;;5056221;28;20440;-53
2021/09/11 07:20:00;;;;;;;7.23;6.53;;;18.60;99.90;;;;;;5057002;28;20458;-54
2021/09/11 07:22:30;;;;;;;6.87;6.17;;;18.50;99.90;;;;;;5056551;28;20540;-53
2021/09/11 07:25:03;;;;;;;7.63;6.13;;;18.50;99.90;;;;;;5056469;28;20667;-54
2021/09/11 07:27:30;;;;;;;9.33;5.70;;;18.60;99.90;;;;;;5056588;28;20462;-52
2021/09/11 07:29:59;;;;;;;6.27;5.67;;;18.80;81.50;;;;;;5056776;28;21971;-53
2021/09/11 07:32:26;;;;;;;5.70;5.20;;;18.80;4.60;;;;;;5056395;28;20554;-51
2021/09/11 07:34:56;;;;;;;5.17;4.67;;;19.10;5.40;;;;;;5056529;28;20585;-53
2021/09/11 07:37:23;;;;;;;5.47;4.63;;;19.30;1.00;;;;;;5056583;28;20470;-50
2021/09/11 07:39:56;;;;;;;7.00;5.00;;;19.50;1.00;;;;;;5056001;28;20493;-53
2021/09/11 07:42:26;;;;;;;7.93;4.50;;;19.70;1.00;;;;;;5056033;28;20469;-50
2021/09/11 07:44:53;;;;;;;5.50;4.87;;;19.90;1.00;;;;;;5056112;28;20488;-56
2021/09/11 07:47:20;;;;;;;8.40;4.50;;;19.90;1.00;;;;;;5055855;28;20486;-54
2021/09/11 07:49:50;;;;;;;4.93;3.90;;;20.30;1.00;;;;;;5056198;28;20575;-54
2021/09/11 07:52:23;;;;;;;8.40;4.50;;;20.60;1.00;;;;;;5056203;28;20462;-53
2021/09/11 07:54:50;;;;;;;5.37;4.60;;;20.60;1.00;;;;;;5056471;28;20569;-51
2021/09/11 07:57:21;;;;;;;5.90;4.00;;;20.50;1.00;;;;;;5059996;28;20490;-50
2021/09/11 07:59:50;;;;;;;6.00;3.70;;;20.80;1.00;;;;;;5059924;28;20476;-46
2021/09/11 08:02:17;;;;;;;4.93;4.10;;;20.70;1.00;;;;;;5059722;28;20910;-47
2021/09/11 08:04:45;;;;;;;4.37;3.63;;;21.10;1.00;;;;;;5059776;28;20462;-46
2021/09/11 08:07:13;;;;;;;5.90;4.27;;;21.00;1.00;;;;;;5059890;28;20825;-49
2021/09/11 08:09:45;;;;;;;4.73;3.60;;;21.00;1.00;;;;;;5059638;28;20425;-50
2021/09/11 08:12:12;;;;;;;4.00;3.20;;;21.00;1.00;;;;;;5059078;28;20501;-50
2021/09/11 08:14:40;;;;;;;4.40;3.10;;;21.10;1.00;;;;;;5059498;28;20476;-51
2021/09/11 08:17:08;;;;;;;3.87;3.53;;;20.40;1.00;;;;;;5059925;28;20825;-52
2021/09/11 08:19:37;;;;;;;4.50;3.30;;;20.50;1.00;;;;;;5058354;28;20561;-50
2021/09/11 08:22:06;;;;;;;4.90;3.33;;;20.40;1.00;;;;;;5054332;28;20527;-50
2021/09/11 08:24:38;;;;;;;3.47;3.13;;;20.30;1.00;;;;;;5053402;28;20469;-49
2021/09/11 08:27:05;;;;;;;3.33;3.03;;;20.70;1.00;;;;;;5056138;28;20465;-50
2021/09/11 08:29:35;;;;;;;6.20;3.43;;;21.30;1.00;;;;;;5057823;28;20462;-54
2021/09/11 08:32:05;;;;;;;2.90;2.70;;;22.10;1.00;;;;;;5058944;28;20940;-57
2021/09/11 08:34:36;;;;;;;2.83;2.63;;;22.40;99.90;;;;;;5059048;28;20494;-53
2021/09/11 08:37:11;;;;;;;2.40;2.20;;;22.80;99.90;;;;;;5059553;28;20532;-51
2021/09/11 08:39:38;;;;;;;3.10;2.33;;;23.00;99.90;;;;;;5049719;28;20507;-53
2021/09/11 08:42:08;;;;;;;2.37;2.17;;;23.20;99.90;;;;;;5053036;28;20505;-50
2021/09/11 08:44:37;;;;;;;3.27;2.50;;;23.10;99.90;;;;;;5058868;28;20469;-53
2021/09/11 08:47:07;;;;;;;2.43;2.10;;;22.50;99.90;;;;;;5043459;28;20446;-52
2021/09/11 08:49:35;;;;;;;2.27;2.07;;;22.30;99.90;;;;;;5055911;28;20477;-56
2021/09/11 08:52:07;;;;;;;2.30;2.10;;;22.10;99.90;;;;;;5058245;28;20896;-46
2021/09/11 08:54:35;;;;;;;2.50;2.30;;;21.70;99.90;;;;;;5055585;28;20433;-53
2021/09/11 08:57:20;;;;;;;2.47;2.27;;;21.00;99.90;;;;;;5058210;28;20472;-47
2021/09/11 08:59:48;;;;;;;2.33;2.17;;;21.00;99.90;;;;;;5064733;28;20546;-52
2021/09/11 09:02:15;;;;;;;3.63;2.30;;;21.30;99.90;;;;;;5076301;28;20440;-50
2021/09/11 09:04:49;;;;;;;3.33;2.87;;;21.30;99.90;;;;;;5057232;28;20801;-52
2021/09/11 09:07:55;;;;;;;3.17;2.40;;;21.00;99.90;;;;;;5062496;28;20516;-52
2021/09/11 09:10:24;;;;;;;3.30;2.30;;;20.50;99.90;;;;;;5059006;28;20502;-53
2021/09/11 09:12:51;;;;;;;3.37;2.50;;;20.30;99.90;;;;;;5058824;28;20476;-52
2021/09/11 09:15:20;;;;;;;2.90;2.30;;;20.40;99.90;;;;;;5056427;28;20497;-50
2021/09/11 09:17:49;;;;;;;3.93;2.70;;;20.20;99.90;;;;;;5057764;28;20462;-51
2021/09/11 09:20:21;;;;;;;2.87;2.67;;;20.20;99.90;;;;;;5057480;28;20493;-49
2021/09/11 09:22:51;;;;;;;4.47;2.50;;;20.20;99.90;;;;;;5058644;28;20764;-48
2021/09/11 09:25:26;;;;;;;2.67;2.40;;;20.40;99.90;;;;;;5057834;28;20486;-49
2021/09/11 09:27:59;;;;;;;2.80;2.37;;;21.30;99.90;;;;;;5057508;28;20496;-52
2021/09/11 09:30:38;;;;;;;2.40;2.20;;;21.70;99.90;;;;;;5058101;28;20498;-53
2021/09/11 09:33:19;;;;;;;6.37;3.20;;;21.90;99.90;;;;;;5057740;28;20466;-54
2021/09/11 09:35:50;;;;;;;4.00;2.83;;;22.50;99.90;;;;;;5057964;28;20581;-54
2021/09/11 09:38:18;;;;;;;2.83;2.60;;;23.20;99.90;;;;;;5057878;28;20506;-48
2021/09/11 09:41:12;;;;;;;3.20;2.90;;;23.80;99.90;;;;;;5064700;28;20492;-53
2021/09/11 09:43:44;;;;;;;5.60;2.90;;;23.90;99.90;;;;;;5061498;28;20828;-54
2021/09/11 09:46:13;;;;;;;3.33;2.67;;;23.90;99.90;;;;;;5061017;28;20457;-54
2021/09/11 09:48:41;;;;;;;2.70;2.50;;;24.30;99.90;;;;;;5059935;28;20553;-50
2021/09/11 09:51:17;;;;;;;3.70;3.27;;;24.40;99.90;;;;;;5057410;28;20466;-52
2021/09/11 09:53:48;;;;;;;2.80;2.60;;;24.30;99.90;;;;;;5057324;28;20500;-54
2021/09/11 09:56:19;;;;;;;3.47;3.07;;;24.20;99.90;;;;;;5056821;28;20494;-51
2021/09/11 09:58:46;;;;;;;2.90;2.70;;;24.10;99.90;;;;;;5057605;28;20470;-50
2021/09/11 10:01:15;;;;;;;3.20;2.90;;;24.00;99.90;;;;;;5057699;28;20974;-55
2021/09/11 10:03:42;;;;;;;5.30;3.10;;;24.60;99.90;;;;;;5057761;28;20490;-55
2021/09/11 10:06:21;;;;;;;3.00;2.57;;;24.50;99.90;;;;;;5057252;28;20519;-48
2021/09/11 10:08:51;;;;;;;4.23;3.10;;;24.10;99.90;;;;;;5057555;28;20468;-55
2021/09/11 10:11:32;;;;;;;3.50;2.97;;;23.50;99.90;;;;;;5057333;28;20486;-54
2021/09/11 10:14:01;;;;;;;4.90;3.10;;;23.30;99.90;;;;;;5057483;28;20552;-49
2021/09/11 10:16:34;;;;;;;3.37;3.07;;;23.30;99.90;;;;;;5057180;28;20548;-52
2021/09/11 10:19:18;;;;;;;3.43;3.13;;;23.20;99.90;;;;;;5057457;28;20493;-48
2021/09/11 10:21:52;;;;;;;4.50;3.00;;;23.30;99.90;;;;;;5057085;28;20466;-49
2021/09/11 10:24:31;;;;;;;5.27;3.37;;;22.90;99.90;;;;;;5056678;28;20489;-48
2021/09/11 10:27:07;;;;;;;3.97;2.90;;;22.50;99.90;;;;;;5048372;28;20486;-53
2021/09/11 10:29:44;;;;;;;4.93;2.90;;;22.80;99.90;;;;;;5055805;28;20494;-54
2021/09/11 10:32:18;;;;;;;3.77;3.10;;;23.40;99.90;;;;;;5056339;28;20458;-49
2021/09/11 10:34:50;;;;;;;3.60;3.30;;;23.30;99.90;;;;;;5056971;28;20490;-53
2021/09/11 10:37:30;;;;;;;8.83;3.90;;;23.10;99.90;;;;;;5057253;28;20870;-57
2021/09/11 10:40:33;;;;;;;4.43;2.93;;;23.30;99.90;;;;;;5056935;28;20466;-50
2021/09/11 10:43:33;;;;;;;3.50;2.87;;;23.10;99.90;;;;;;5039299;28;20482;-56
2021/09/11 10:46:07;;;;;;;3.20;2.97;;;22.80;99.90;;;;;;5056550;28;20462;-48
2021/09/11 10:48:47;;;;;;;3.10;2.80;;;22.90;99.90;;;;;;5056279;28;20458;-53
2021/09/11 10:51:24;;;;;;;4.60;3.30;;;23.30;99.90;;;;;;5056922;28;20753;-53
2021/09/11 10:54:12;;;;;;;3.23;2.93;;;23.10;99.90;;;;;;5057228;28;20552;-49
2021/09/11 10:56:41;;;;;;;3.20;3.00;;;23.20;99.90;;;;;;5056460;28;20500;-48
2021/09/11 10:59:27;;;;;;;3.57;3.27;;;23.00;99.90;;;;;;5056652;28;20520;-52
2021/09/11 11:01:56;;;;;;;4.00;3.20;;;22.60;99.90;;;;;;5056523;28;20458;-51
2021/09/11 11:04:25;;;;;;;4.50;3.50;;;22.60;99.90;;;;;;5056682;28;20892;-51
2021/09/11 11:06:57;;;;;;;3.43;3.13;;;22.80;99.90;;;;;;5056701;28;20462;-48
2021/09/11 11:09:25;;;;;;;4.60;3.40;;;23.40;99.90;;;;;;5056856;28;20528;-53
2021/09/11 11:11:54;;;;;;;3.10;2.90;;;23.60;99.90;;;;;;5056604;28;20490;-50
2021/09/11 11:14:25;;;;;;;2.80;2.60;;;23.20;99.90;;;;;;5056892;28;20815;-53
2021/09/11 11:16:53;;;;;;;3.97;3.20;;;22.90;99.90;;;;;;5056383;28;20525;-50
2021/09/11 11:19:26;;;;;;;3.80;3.20;;;22.80;99.90;;;;;;5056831;28;20458;-48
2021/09/11 11:22:02;;;;;;;4.50;3.33;;;22.90;99.90;;;;;;5056947;28;20549;-56
2021/09/11 11:24:32;;;;;;;3.47;3.20;;;22.70;99.90;;;;;;5056005;28;20499;-50
2021/09/11 11:27:00;;;;;;;3.80;3.50;;;22.60;99.90;;;;;;5056818;28;20486;-46
2021/09/11 11:29:28;;;;;;;5.70;3.60;;;22.40;99.90;;;;;;5056941;28;20468;-49
2021/09/11 11:31:57;;;;;;;5.00;3.60;;;22.50;99.90;;;;;;5060746;28;20466;-47
2021/09/11 11:34:26;;;;;;;3.27;3.00;;;22.60;99.90;;;;;;5060427;28;20478;-50
2021/09/11 11:36:55;;;;;;;4.20;3.90;;;22.40;99.90;;;;;;5060465;28;20493;-47
2021/09/11 11:39:25;;;;;;;4.60;3.90;;;22.00;99.90;;;;;;5060674;28;20525;-48
2021/09/11 11:42:05;;;;;;;4.40;4.07;;;22.00;99.90;;;;;;5060796;28;20468;-47
2021/09/11 11:44:33;;;;;;;6.73;3.90;;;21.90;99.90;;;;;;5055104;28;20950;-50
2021/09/11 11:47:14;;;;;;;4.10;3.80;;;21.80;99.90;;;;;;5058286;28;20490;-46
2021/09/11 11:49:45;;;;;;;4.27;3.87;;;21.70;99.90;;;;;;5059902;28;20568;-48
2021/09/11 11:52:16;;;;;;;4.37;3.97;;;22.00;99.90;;;;;;5059625;28;20501;-46
2021/09/11 11:54:45;;;;;;;4.70;3.73;;;22.20;99.90;;;;;;5059889;28;20543;-50
2021/09/11 11:57:19;;;;;;;5.10;3.73;;;22.50;99.90;;;;;;5060097;28;20525;-50
2021/09/11 12:00:00;;;;;;;5.77;4.20;;;22.60;99.90;;;;;;5060423;28;20519;-50
2021/09/11 12:02:30;;;;;;;4.90;4.10;;;22.30;99.90;;;;;;5059677;28;20859;-50
2021/09/11 12:05:13;;;;;;;3.63;3.30;;;22.30;99.90;;;;;;5060098;28;20901;-52
2021/09/11 12:07:41;;;;;;;5.00;4.50;;;22.40;99.90;;;;;;5060347;28;20482;-46
2021/09/11 12:10:16;;;;;;;4.40;4.00;;;22.40;99.90;;;;;;5059692;28;20466;-48
2021/09/11 12:12:52;;;;;;;3.93;3.63;;;22.30;99.90;;;;;;5059972;28;20553;-48
2021/09/11 12:15:21;;;;;;;5.13;4.10;;;22.00;99.90;;;;;;5060033;28;20535;-51
2021/09/11 12:18:02;;;;;;;5.53;3.60;;;21.90;99.90;;;;;;5059845;28;20526;-48
2021/09/11 12:20:32;;;;;;;4.77;4.37;;;21.80;99.90;;;;;;5059662;28;20504;-48
2021/09/11 12:23:16;;;;;;;5.17;4.60;;;21.70;99.90;;;;;;5059615;28;20466;-53
2021/09/11 12:25:58;;;;;;;4.57;4.10;;;21.70;99.90;;;;;;5059391;28;20490;-49
2021/09/11 12:28:46;;;;;;;4.77;4.30;;;21.70;99.90;;;;;;5059638;28;20496;-52
2021/09/11 12:31:29;;;;;;;4.93;3.50;;;21.90;99.90;;;;;;5059070;28;20474;-49
2021/09/11 12:34:04;;;;;;;8.40;4.80;;;21.70;99.90;;;;;;5058736;28;20548;-46
2021/09/11 12:36:38;;;;;;;4.07;3.70;;;21.60;99.90;;;;;;5059832;28;20500;-48
2021/09/11 12:39:24;;;;;;;4.73;4.03;;;21.80;99.90;;;;;;5059522;28;20436;-46
2021/09/11 12:41:53;;;;;;;6.50;4.47;;;21.70;99.90;;;;;;5058328;28;20465;-47
2021/09/11 12:44:23;;;;;;;4.73;4.30;;;21.60;99.90;;;;;;5058977;28;20501;-47
2021/09/11 12:46:52;;;;;;;5.80;5.20;;;21.60;99.90;;;;;;5059149;28;20516;-46
2021/09/11 12:49:28;;;;;;;5.20;4.73;;;21.40;99.90;;;;;;5058827;28;20473;-46
2021/09/11 12:51:57;;;;;;;4.80;4.27;;;21.30;99.90;;;;;;5059124;28;20511;-49
2021/09/11 12:54:24;;;;;;;5.07;4.60;;;21.20;99.90;;;;;;5059105;28;20762;-47